createdAt,value
2017-12-24T00:00:08.000Z,99099.51
2017-12-24T00:01:12.636Z,99095.53
2017-12-24T00:02:17.368Z,99080.08
2017-12-24T00:03:22.053Z,99101.98
2017-12-24T00:04:26.773Z,99082.17
2017-12-24T00:05:31.941Z,99098.53
2017-12-24T00:06:36.662Z,99101.78
2017-12-24T00:07:41.309Z,99091.37
2017-12-24T00:08:46.145Z,99080.48
2017-12-24T00:09:51.749Z,99100.87
2017-12-24T00:10:56.494Z,99102.70
2017-12-24T00:12:01.655Z,99098.12
2017-12-24T00:13:06.341Z,99094.39
2017-12-24T00:14:11.162Z,99089.48
2017-12-24T00:15:15.856Z,99084.52
2017-12-24T00:16:20.591Z,99069.02
2017-12-24T00:17:25.150Z,99075.04
2017-12-24T00:18:30.045Z,99079.82
2017-12-24T00:19:34.684Z,99076.81
2017-12-24T00:20:39.364Z,99065.89
2017-12-24T00:21:44.015Z,99090.89
2017-12-24T00:22:48.795Z,99083.03
2017-12-24T00:23:53.554Z,99077.86
2017-12-24T00:24:58.730Z,99081.09
2017-12-24T00:26:03.438Z,99074.75
2017-12-24T00:27:08.156Z,99064.08
2017-12-24T00:28:13.758Z,99073.19
2017-12-24T00:29:18.336Z,99075.36
2017-12-24T00:30:22.996Z,99054.64
2017-12-24T00:31:27.990Z,99074.52
2017-12-24T00:32:32.631Z,99080.08
2017-12-24T00:33:37.350Z,99073.06
2017-12-24T00:34:42.032Z,99067.88
2017-12-24T00:35:46.890Z,99084.07
2017-12-24T00:36:51.576Z,99073.67
2017-12-24T00:37:56.875Z,99087.92
2017-12-24T00:39:01.775Z,99061.34
2017-12-24T00:40:06.610Z,99071.36
2017-12-24T00:41:11.266Z,99058.16
2017-12-24T00:42:15.923Z,99074.69
2017-12-24T00:43:21.221Z,99061.32
2017-12-24T00:44:26.302Z,99069.77
2017-12-24T00:45:30.925Z,99048.17
2017-12-24T00:46:35.617Z,99061.16
2017-12-24T00:47:40.320Z,99057.27
2017-12-24T00:48:45.572Z,99051.91
2017-12-24T00:49:50.320Z,99051.86
2017-12-24T00:50:55.353Z,99062.73
2017-12-24T00:52:00.047Z,99058.05
2017-12-24T00:53:05.521Z,99063.31
2017-12-24T00:54:10.260Z,99055.16
2017-12-24T00:55:14.928Z,99068.09
2017-12-24T00:56:19.581Z,99062.67
2017-12-24T00:57:24.597Z,99075.17
2017-12-24T00:58:29.362Z,99063.02
2017-12-24T00:59:35.033Z,99068.38
2017-12-24T01:00:39.850Z,99074.64
2017-12-24T01:01:44.656Z,99060.20
2017-12-24T01:02:49.449Z,99070.08
2017-12-24T01:03:54.552Z,99063.06
2017-12-24T01:04:59.414Z,99063.02
2017-12-24T01:06:04.925Z,99064.39
2017-12-24T01:07:09.750Z,99068.64
2017-12-24T01:08:14.490Z,99068.97
2017-12-24T01:09:19.206Z,99066.33
2017-12-24T01:10:24.163Z,99066.89
2017-12-24T01:11:28.802Z,99063.39
2017-12-24T01:12:33.494Z,99064.66
2017-12-24T01:13:38.107Z,99062.55
2017-12-24T01:14:42.689Z,99064.17
2017-12-24T01:15:47.399Z,99064.61
2017-12-24T01:16:52.611Z,99062.14
2017-12-24T01:17:57.392Z,99062.67
2017-12-24T01:19:02.157Z,99058.45
2017-12-24T01:20:06.924Z,99052.98
2017-12-24T01:21:12.484Z,99058.97
2017-12-24T01:22:17.120Z,99052.27
2017-12-24T01:23:22.104Z,99068.63
2017-12-24T01:24:26.902Z,99051.14
2017-12-24T01:25:31.454Z,99047.52
2017-12-24T01:26:36.048Z,99054.77
2017-12-24T01:27:40.702Z,99046.12
2017-12-24T01:28:45.566Z,99051.84
2017-12-24T01:29:50.805Z,99044.95
2017-12-24T01:30:55.464Z,99054.05
2017-12-24T01:32:00.615Z,99053.45
2017-12-24T01:33:05.251Z,99053.25
2017-12-24T01:34:09.967Z,99059.83
2017-12-24T01:35:14.621Z,99041.65
2017-12-24T01:36:19.783Z,99056.20
2017-12-24T01:37:24.479Z,99053.94
2017-12-24T01:38:29.114Z,99056.19
2017-12-24T01:39:33.833Z,99058.41
2017-12-24T01:40:38.391Z,99052.20
2017-12-24T01:41:43.010Z,99073.86
2017-12-24T01:42:48.004Z,99052.57
2017-12-24T01:43:52.646Z,99073.20
2017-12-24T01:44:57.296Z,99059.34
2017-12-24T01:46:02.031Z,99051.32
2017-12-24T01:47:06.830Z,99035.06
2017-12-24T01:48:11.470Z,99046.45
2017-12-24T01:49:16.460Z,99049.66
2017-12-24T01:50:21.124Z,99074.34
2017-12-24T01:51:25.728Z,99048.52
2017-12-24T01:52:30.961Z,99061.77
2017-12-24T01:53:35.895Z,99053.38
2017-12-24T01:54:40.580Z,99070.55
2017-12-24T01:55:46.235Z,99059.76
2017-12-24T01:56:51.259Z,99065.89
2017-12-24T01:57:55.914Z,99069.85
2017-12-24T01:59:00.573Z,99052.69
2017-12-24T02:00:05.239Z,99053.41
2017-12-24T02:01:09.897Z,99054.77
2017-12-24T02:02:14.890Z,99030.74
2017-12-24T02:03:19.586Z,99040.69
2017-12-24T02:04:24.213Z,99037.00
2017-12-24T02:05:29.064Z,99052.67
2017-12-24T02:06:33.724Z,99053.48
2017-12-24T02:07:38.479Z,99053.89
2017-12-24T02:08:43.686Z,99048.52
2017-12-24T02:09:48.454Z,99047.84
2017-12-24T02:10:53.168Z,99046.45
2017-12-24T02:11:59.146Z,99040.91
2017-12-24T02:13:03.709Z,99052.22
2017-12-24T02:14:08.220Z,99040.69
2017-12-24T02:15:13.209Z,99040.26
2017-12-24T02:16:17.984Z,99037.81
2017-12-24T02:17:22.708Z,99042.61
2017-12-24T02:18:27.467Z,99038.48
2017-12-24T02:19:32.207Z,99040.05
2017-12-24T02:20:36.956Z,99055.03
2017-12-24T02:21:42.184Z,99046.91
2017-12-24T02:22:46.884Z,99055.56
2017-12-24T02:23:51.641Z,99050.61
2017-12-24T02:24:56.444Z,99045.02
2017-12-24T02:26:01.265Z,99044.23
2017-12-24T02:27:06.010Z,99041.70
2017-12-24T02:28:11.077Z,99043.52
2017-12-24T02:29:15.815Z,99029.38
2017-12-24T02:30:20.801Z,99027.66
2017-12-24T02:31:25.572Z,99008.91
2017-12-24T02:32:30.374Z,99025.08
2017-12-24T02:33:35.162Z,99027.62
2017-12-24T02:34:40.590Z,99049.81
2017-12-24T02:35:45.336Z,99036.02
2017-12-24T02:36:50.061Z,99039.09
2017-12-24T02:37:54.794Z,99030.98
2017-12-24T02:38:59.561Z,99019.92
2017-12-24T02:40:04.297Z,99027.75
2017-12-24T02:41:09.543Z,99030.45
2017-12-24T02:42:14.517Z,99006.48
2017-12-24T02:43:19.290Z,99017.50
2017-12-24T02:44:24.033Z,99036.47
2017-12-24T02:45:28.798Z,99034.79
2017-12-24T02:46:33.539Z,99009.09
2017-12-24T02:47:38.657Z,99023.67
2017-12-24T02:48:43.418Z,99031.47
2017-12-24T02:49:48.191Z,99024.84
2017-12-24T02:50:52.958Z,99004.11
2017-12-24T02:53:07.596Z,99017.58
2017-12-24T02:54:12.813Z,99018.30
2017-12-24T02:55:17.581Z,99013.28
2017-12-24T02:56:22.311Z,99027.43
2017-12-24T02:57:27.077Z,99024.45
2017-12-24T02:58:31.793Z,99025.27
2017-12-24T02:59:36.678Z,99033.24
2017-12-24T03:00:41.664Z,99027.95
2017-12-24T03:01:46.369Z,99016.84
2017-12-24T03:02:51.032Z,99004.08
2017-12-24T03:03:55.736Z,99015.66
2017-12-24T03:05:00.772Z,99018.94
2017-12-24T03:06:05.498Z,99013.58
2017-12-24T03:07:10.656Z,99015.49
2017-12-24T03:08:15.299Z,99013.84
2017-12-24T03:09:19.909Z,99026.07
2017-12-24T03:10:24.512Z,99009.34
2017-12-24T03:11:29.173Z,99010.56
2017-12-24T03:12:33.821Z,99008.41
2017-12-24T03:13:39.141Z,99013.98
2017-12-24T03:14:43.778Z,99009.06
2017-12-24T03:15:48.498Z,99006.72
2017-12-24T03:16:53.149Z,99007.58
2017-12-24T03:17:57.613Z,99013.11
2017-12-24T03:19:02.436Z,99007.33
2017-12-24T03:20:07.482Z,98993.48
2017-12-24T03:21:12.208Z,98989.16
2017-12-24T03:22:17.878Z,99003.91
2017-12-24T03:23:23.343Z,99002.44
2017-12-24T03:24:28.148Z,99006.45
2017-12-24T03:25:32.893Z,99013.69
2017-12-24T03:26:38.041Z,98995.87
2017-12-24T03:27:42.773Z,98999.58
2017-12-24T03:28:47.553Z,99002.40
2017-12-24T03:29:52.250Z,99004.28
2017-12-24T03:30:56.988Z,98998.36
2017-12-24T03:32:01.705Z,98981.95
2017-12-24T03:33:06.825Z,98977.70
2017-12-24T03:34:12.097Z,99010.23
2017-12-24T03:35:19.245Z,98999.22
2017-12-24T03:36:24.542Z,98995.73
2017-12-24T03:37:30.236Z,98987.84
2017-12-24T03:38:35.912Z,98999.25
2017-12-24T03:39:41.836Z,98996.81
2017-12-24T03:40:47.552Z,98997.52
2017-12-24T03:41:52.892Z,98997.53
2017-12-24T03:43:00.654Z,98994.98
2017-12-24T03:44:06.791Z,98998.18
2017-12-24T03:45:11.758Z,98992.95
2017-12-24T03:46:17.213Z,98990.42
2017-12-24T03:47:23.900Z,98984.92
2017-12-24T03:48:29.202Z,98982.52
2017-12-24T03:49:34.021Z,98981.56
2017-12-24T03:50:39.998Z,98980.34
2017-12-24T03:51:45.921Z,98986.62
2017-12-24T03:52:52.034Z,98986.70
2017-12-24T03:53:57.790Z,98987.09
2017-12-24T03:55:02.459Z,98979.24
2017-12-24T03:56:07.800Z,98984.56
2017-12-24T03:57:12.506Z,98980.66
2017-12-24T03:58:17.156Z,98975.38
2017-12-24T03:59:22.250Z,98975.72
2017-12-24T04:00:26.989Z,98977.81
2017-12-24T04:01:31.731Z,98971.48
2017-12-24T04:02:36.896Z,98954.66
2017-12-24T04:03:42.020Z,98968.28
2017-12-24T04:04:46.565Z,98967.54
2017-12-24T04:05:51.707Z,98965.74
2017-12-24T04:06:56.516Z,98972.42
2017-12-24T04:08:01.227Z,98970.27
2017-12-24T04:09:06.547Z,98973.50
2017-12-24T04:10:11.291Z,98974.38
2017-12-24T04:11:15.996Z,98967.34
2017-12-24T04:12:21.173Z,98971.06
2017-12-24T04:13:25.875Z,98971.58
2017-12-24T04:14:30.633Z,98982.45
2017-12-24T04:15:35.449Z,98976.47
2017-12-24T04:16:40.283Z,98968.50
2017-12-24T04:17:45.751Z,98965.06
2017-12-24T04:18:51.055Z,98969.26
2017-12-24T04:19:55.773Z,98974.41
2017-12-24T04:21:00.506Z,98972.45
2017-12-24T04:22:05.273Z,98970.35
2017-12-24T04:23:10.001Z,98977.03
2017-12-24T04:24:14.681Z,98971.00
2017-12-24T04:25:19.900Z,98974.06
2017-12-24T04:26:25.611Z,98962.55
2017-12-24T04:27:30.320Z,98965.90
2017-12-24T04:28:35.026Z,98965.48
2017-12-24T04:29:39.750Z,98951.17
2017-12-24T04:30:44.341Z,98969.92
2017-12-24T04:31:52.159Z,98956.45
2017-12-24T04:32:56.826Z,98970.61
2017-12-24T04:34:01.810Z,98972.31
2017-12-24T04:35:06.590Z,98970.22
2017-12-24T04:36:11.305Z,98971.39
2017-12-24T04:37:16.062Z,98977.23
2017-12-24T04:38:21.117Z,98966.95
2017-12-24T04:39:25.772Z,98967.19
2017-12-24T04:40:30.478Z,98967.98
2017-12-24T04:41:35.158Z,98960.38
2017-12-24T04:42:39.864Z,98966.13
2017-12-24T04:43:44.682Z,98956.58
2017-12-24T04:44:49.852Z,98958.50
2017-12-24T04:45:54.575Z,98947.00
2017-12-24T04:47:05.129Z,98955.91
2017-12-24T04:48:09.757Z,98948.93
2017-12-24T04:49:14.391Z,98959.96
2017-12-24T04:50:19.048Z,98962.16
2017-12-24T04:51:24.044Z,98959.64
2017-12-24T04:52:29.568Z,98958.80
2017-12-24T04:53:34.230Z,98952.11
2017-12-24T04:54:38.899Z,98958.88
2017-12-24T04:55:44.034Z,98953.75
2017-12-24T04:56:48.768Z,98955.67
2017-12-24T04:57:53.890Z,98965.48
2017-12-24T04:58:58.879Z,98962.72
2017-12-24T05:00:03.727Z,98968.12
2017-12-24T05:01:08.459Z,98965.39
2017-12-24T05:02:13.267Z,98958.59
2017-12-24T05:03:18.065Z,98962.59
2017-12-24T05:04:24.124Z,98966.99
2017-12-24T05:05:28.901Z,98951.12
2017-12-24T05:06:33.621Z,98957.86
2017-12-24T05:07:38.373Z,98954.63
2017-12-24T05:08:43.107Z,98952.20
2017-12-24T05:09:48.564Z,98958.00
2017-12-24T05:10:53.777Z,98954.33
2017-12-24T05:11:58.515Z,98955.14
2017-12-24T05:13:03.250Z,98945.66
2017-12-24T05:14:07.983Z,98966.38
2017-12-24T05:15:12.967Z,98953.41
2017-12-24T05:16:17.755Z,98962.60
2017-12-24T05:17:23.546Z,98950.16
2017-12-24T05:18:28.316Z,98944.84
2017-12-24T05:19:33.318Z,98954.09
2017-12-24T05:20:37.979Z,98948.41
2017-12-24T05:21:42.600Z,98945.40
2017-12-24T05:22:47.179Z,98938.02
2017-12-24T05:23:52.126Z,98946.40
2017-12-24T05:24:56.648Z,98942.58
2017-12-24T05:26:01.190Z,98943.47
2017-12-24T05:27:06.849Z,98935.50
2017-12-24T05:28:11.622Z,98944.17
2017-12-24T05:29:16.414Z,98940.40
2017-12-24T05:30:21.618Z,98946.67
2017-12-24T05:31:26.349Z,98938.37
2017-12-24T05:32:31.097Z,98947.80
2017-12-24T05:33:35.809Z,98945.36
2017-12-24T05:34:40.537Z,98942.78
2017-12-24T05:35:45.289Z,98932.94
2017-12-24T05:36:50.316Z,98940.34
2017-12-24T05:37:55.615Z,98932.29
2017-12-24T05:39:00.302Z,98937.16
2017-12-24T05:40:04.999Z,98942.27
2017-12-24T05:41:09.603Z,98939.11
2017-12-24T05:42:14.318Z,98930.22
2017-12-24T05:43:19.389Z,98934.73
2017-12-24T05:44:24.077Z,98934.91
2017-12-24T05:45:28.803Z,98937.55
2017-12-24T05:46:33.466Z,98939.77
2017-12-24T05:47:38.144Z,98927.84
2017-12-24T05:48:42.788Z,98947.70
2017-12-24T05:49:47.513Z,98951.92
2017-12-24T05:50:52.199Z,98939.41
2017-12-24T05:51:57.016Z,98942.64
2017-12-24T05:53:01.656Z,98948.44
2017-12-24T05:54:06.299Z,98938.77
2017-12-24T05:55:10.964Z,98935.10
2017-12-24T05:56:16.277Z,98940.06
2017-12-24T05:57:21.030Z,98936.33
2017-12-24T05:58:25.834Z,98924.28
2017-12-24T05:59:30.538Z,98936.74
2017-12-24T06:00:35.290Z,98930.61
2017-12-24T06:01:40.025Z,98927.78
2017-12-24T06:02:45.142Z,98930.67
2017-12-24T06:03:49.841Z,98937.02
2017-12-24T06:04:54.546Z,98924.67
2017-12-24T06:05:59.247Z,98935.10
2017-12-24T06:07:04.072Z,98927.78
2017-12-24T06:08:08.822Z,98943.07
2017-12-24T06:09:14.628Z,98944.36
2017-12-24T06:10:19.340Z,98938.29
2017-12-24T06:11:24.092Z,98942.97
2017-12-24T06:12:28.873Z,98934.64
2017-12-24T06:13:33.592Z,98934.19
2017-12-24T06:14:38.318Z,98932.14
2017-12-24T06:15:43.589Z,98914.77
2017-12-24T06:16:48.294Z,98942.27
2017-12-24T06:17:53.098Z,98941.41
2017-12-24T06:18:57.767Z,98930.59
2017-12-24T06:20:03.379Z,98937.34
2017-12-24T06:21:07.977Z,98931.23
2017-12-24T06:22:12.946Z,98935.48
2017-12-24T06:23:17.493Z,98935.48
2017-12-24T06:24:22.054Z,98938.61
2017-12-24T06:25:26.663Z,98944.05
2017-12-24T06:26:31.244Z,98930.89
2017-12-24T06:27:36.028Z,98937.55
2017-12-24T06:28:41.091Z,98929.20
2017-12-24T06:29:45.892Z,98936.11
2017-12-24T06:30:50.628Z,98943.88
2017-12-24T06:31:55.663Z,98922.20
2017-12-24T06:33:00.389Z,98929.55
2017-12-24T06:34:05.214Z,98921.97
2017-12-24T06:35:10.409Z,98934.09
2017-12-24T06:36:15.198Z,98934.02
2017-12-24T06:37:19.963Z,98938.31
2017-12-24T06:38:24.904Z,98934.08
2017-12-24T06:39:29.727Z,98932.64
2017-12-24T06:40:34.440Z,98930.45
2017-12-24T06:41:40.104Z,98936.75
2017-12-24T06:42:44.843Z,98935.11
2017-12-24T06:43:49.588Z,98931.23
2017-12-24T06:44:54.364Z,98925.76
2017-12-24T06:45:59.140Z,98927.44
2017-12-24T06:47:03.913Z,98927.59
2017-12-24T06:48:09.043Z,98939.71
2017-12-24T06:49:13.789Z,98935.19
2017-12-24T06:50:18.600Z,98933.47
2017-12-24T06:51:23.327Z,98932.27
2017-12-24T06:52:27.935Z,98935.19
2017-12-24T06:53:32.509Z,98934.75
2017-12-24T06:54:37.504Z,98928.92
2017-12-24T06:55:42.530Z,98923.63
2017-12-24T06:56:47.177Z,98907.83
2017-12-24T06:57:51.769Z,98917.81
2017-12-24T06:58:56.492Z,98924.33
2017-12-24T07:00:01.261Z,98923.16
2017-12-24T07:01:06.480Z,98916.33
2017-12-24T07:02:11.219Z,98917.85
2017-12-24T07:03:16.168Z,98921.81
2017-12-24T07:04:20.854Z,98923.06
2017-12-24T07:05:25.650Z,98917.28
2017-12-24T07:06:30.448Z,98908.00
2017-12-24T07:07:35.648Z,98918.38
2017-12-24T07:08:40.376Z,98919.84
2017-12-24T07:09:45.169Z,98916.30
2017-12-24T07:10:49.955Z,98915.49
2017-12-24T07:11:54.553Z,98921.19
2017-12-24T07:12:59.118Z,98916.95
2017-12-24T07:14:04.145Z,98915.73
2017-12-24T07:15:08.725Z,98913.36
2017-12-24T07:16:13.831Z,98909.66
2017-12-24T07:17:18.421Z,98912.81
2017-12-24T07:18:23.027Z,98913.95
2017-12-24T07:19:27.649Z,98915.20
2017-12-24T07:20:32.659Z,98909.30
2017-12-24T07:21:37.231Z,98915.47
2017-12-24T07:22:41.805Z,98915.10
2017-12-24T07:23:46.415Z,98902.54
2017-12-24T07:24:51.016Z,98908.85
2017-12-24T07:25:56.084Z,98903.66
2017-12-24T07:27:00.858Z,98912.17
2017-12-24T07:28:05.598Z,98918.89
2017-12-24T07:29:11.355Z,98910.59
2017-12-24T07:30:16.153Z,98914.42
2017-12-24T07:31:20.878Z,98910.52
2017-12-24T07:32:27.034Z,98910.52
2017-12-24T07:33:31.783Z,98910.06
2017-12-24T07:34:36.597Z,98916.20
2017-12-24T07:35:41.308Z,98923.38
2017-12-24T07:36:46.151Z,98910.55
2017-12-24T07:37:51.175Z,98914.61
2017-12-24T07:38:56.260Z,98918.05
2017-12-24T07:40:01.015Z,98921.42
2017-12-24T07:41:05.785Z,98916.32
2017-12-24T07:42:10.491Z,98914.91
2017-12-24T07:43:15.304Z,98909.13
2017-12-24T07:44:19.915Z,98926.20
2017-12-24T07:45:24.911Z,98916.73
2017-12-24T07:46:29.565Z,98908.08
2017-12-24T07:47:34.330Z,98909.66
2017-12-24T07:48:39.185Z,98906.19
2017-12-24T07:49:43.935Z,98912.56
2017-12-24T07:50:48.696Z,98909.08
2017-12-24T07:51:53.872Z,98911.16
2017-12-24T07:52:59.803Z,98915.63
2017-12-24T07:54:04.506Z,98918.56
2017-12-24T07:55:09.316Z,98915.69
2017-12-24T07:56:14.091Z,98910.10
2017-12-24T07:57:18.820Z,98909.20
2017-12-24T07:58:24.075Z,98921.80
2017-12-24T07:59:28.815Z,98918.27
2017-12-24T08:00:33.549Z,98912.02
2017-12-24T08:01:38.447Z,98907.16
2017-12-24T08:02:43.173Z,98906.31
2017-12-24T08:03:47.938Z,98908.83
2017-12-24T08:04:53.123Z,98914.69
2017-12-24T08:05:57.932Z,98910.45
2017-12-24T08:07:03.901Z,98910.81
2017-12-24T08:08:08.616Z,98913.25
2017-12-24T08:09:13.362Z,98907.20
2017-12-24T08:10:17.991Z,98912.16
2017-12-24T08:11:23.122Z,98918.87
2017-12-24T08:12:27.776Z,98917.47
2017-12-24T08:13:32.495Z,98914.58
2017-12-24T08:14:37.242Z,98912.94
2017-12-24T08:15:42.137Z,98914.47
2017-12-24T08:16:46.941Z,98895.33
2017-12-24T08:17:52.107Z,98903.97
2017-12-24T08:18:56.818Z,98905.42
2017-12-24T08:20:01.604Z,98909.47
2017-12-24T08:21:06.320Z,98902.44
2017-12-24T08:22:11.049Z,98907.31
2017-12-24T08:23:15.888Z,98919.69
2017-12-24T08:24:21.192Z,98918.21
2017-12-24T08:25:25.914Z,98911.98
2017-12-24T08:26:30.624Z,98927.51
2017-12-24T08:27:35.391Z,98912.94
2017-12-24T08:28:40.102Z,98913.17
2017-12-24T08:29:44.879Z,98915.25
2017-12-24T08:30:50.184Z,98918.91
2017-12-24T08:31:54.949Z,98916.98
2017-12-24T08:32:59.705Z,98920.33
2017-12-24T08:34:04.487Z,98917.80
2017-12-24T08:35:09.263Z,98906.17
2017-12-24T08:36:14.036Z,98911.63
2017-12-24T08:37:19.075Z,98909.16
2017-12-24T08:38:23.655Z,98905.58
2017-12-24T08:39:28.967Z,98923.97
2017-12-24T08:40:33.587Z,98910.92
2017-12-24T08:41:38.299Z,98914.22
2017-12-24T08:42:42.904Z,98908.47
2017-12-24T08:43:47.757Z,98921.45
2017-12-24T08:44:52.317Z,98907.11
2017-12-24T08:45:56.997Z,98904.97
2017-12-24T08:47:01.711Z,98912.33
2017-12-24T08:48:07.462Z,98899.85
2017-12-24T08:49:12.237Z,98902.84
2017-12-24T08:50:17.305Z,98906.00
2017-12-24T08:51:21.965Z,98914.79
2017-12-24T08:52:26.625Z,98909.52
2017-12-24T08:53:31.338Z,98911.90
2017-12-24T08:54:36.078Z,98903.27
2017-12-24T08:55:40.883Z,98910.42
2017-12-24T08:56:45.891Z,98907.39
2017-12-24T08:57:50.615Z,98908.17
2017-12-24T08:58:55.381Z,98903.52
2017-12-24T09:00:00.213Z,98911.13
2017-12-24T09:01:05.000Z,98902.72
2017-12-24T09:02:10.299Z,98908.02
2017-12-24T09:03:15.103Z,98903.16
2017-12-24T09:04:20.027Z,98898.51
2017-12-24T09:05:24.857Z,98903.77
2017-12-24T09:06:29.601Z,98899.66
2017-12-24T09:07:34.427Z,98901.95
2017-12-24T09:08:44.270Z,98901.30
2017-12-24T09:09:48.893Z,98902.91
2017-12-24T09:10:53.524Z,98900.95
2017-12-24T09:11:58.126Z,98899.20
2017-12-24T09:13:02.893Z,98895.27
2017-12-24T09:14:07.707Z,98892.59
2017-12-24T09:15:13.137Z,98888.48
2017-12-24T09:16:17.908Z,98898.84
2017-12-24T09:17:22.964Z,98893.36
2017-12-24T09:18:27.712Z,98900.84
2017-12-24T09:19:32.544Z,98888.13
2017-12-24T09:20:37.340Z,98897.83
2017-12-24T09:21:42.612Z,98890.80
2017-12-24T09:22:47.386Z,98902.58
2017-12-24T09:23:52.077Z,98893.41
2017-12-24T09:24:57.232Z,98903.91
2017-12-24T09:26:01.964Z,98903.81
2017-12-24T09:27:06.920Z,98898.02
2017-12-24T09:28:12.350Z,98896.47
2017-12-24T09:29:16.962Z,98895.23
2017-12-24T09:30:21.523Z,98881.17
2017-12-24T09:31:26.098Z,98897.95
2017-12-24T09:32:30.676Z,98890.58
2017-12-24T09:33:37.529Z,98896.97
2017-12-24T09:34:42.981Z,98888.16
2017-12-24T09:35:49.117Z,98889.25
2017-12-24T09:36:53.886Z,98881.80
2017-12-24T09:37:58.621Z,98906.74
2017-12-24T09:39:04.361Z,98885.52
2017-12-24T09:40:09.144Z,98886.31
2017-12-24T09:41:14.301Z,98887.26
2017-12-24T09:42:19.118Z,98889.24
2017-12-24T09:43:24.043Z,98886.21
2017-12-24T09:44:28.866Z,98889.22
2017-12-24T09:45:33.644Z,98889.59
2017-12-24T09:46:38.516Z,98883.02
2017-12-24T09:47:43.392Z,98882.38
2017-12-24T09:48:48.174Z,98878.77
2017-12-24T09:49:53.051Z,98881.42
2017-12-24T09:50:57.644Z,98879.00
2017-12-24T09:52:02.322Z,98881.48
2017-12-24T09:53:06.946Z,98879.88
2017-12-24T09:54:13.424Z,98875.72
2017-12-24T09:55:18.062Z,98874.59
2017-12-24T09:56:22.698Z,98873.20
2017-12-24T09:57:27.327Z,98877.46
2017-12-24T09:58:31.979Z,98871.89
2017-12-24T09:59:36.708Z,98871.25
2017-12-24T10:00:42.659Z,98864.55
2017-12-24T10:01:47.440Z,98881.41
2017-12-24T10:02:52.221Z,98867.66
2017-12-24T10:03:57.546Z,98859.32
2017-12-24T10:05:02.482Z,98860.69
2017-12-24T10:06:07.135Z,98855.91
2017-12-24T10:07:12.169Z,98851.11
2017-12-24T10:08:16.943Z,98859.31
2017-12-24T10:09:21.799Z,98872.42
2017-12-24T10:10:26.942Z,98859.67
2017-12-24T10:11:31.744Z,98864.73
2017-12-24T10:12:36.355Z,98866.50
2017-12-24T10:13:41.261Z,98857.99
2017-12-24T10:14:45.915Z,98860.43
2017-12-24T10:15:50.665Z,98859.55
2017-12-24T10:16:55.442Z,98862.99
2017-12-24T10:18:00.183Z,98854.06
2017-12-24T10:19:05.143Z,98849.64
2017-12-24T10:20:10.191Z,98854.44
2017-12-24T10:21:14.998Z,98865.87
2017-12-24T10:22:19.903Z,98850.53
2017-12-24T10:23:24.658Z,98845.06
2017-12-24T10:24:29.258Z,98855.92
2017-12-24T10:25:33.872Z,98863.86
2017-12-24T10:26:38.774Z,98844.84
2017-12-24T10:27:43.438Z,98835.64
2017-12-24T10:28:48.106Z,98821.39
2017-12-24T10:29:52.918Z,98828.31
2017-12-24T10:30:57.660Z,98834.95
2017-12-24T10:32:02.461Z,98834.95
2017-12-24T10:33:08.532Z,98850.80
2017-12-24T10:34:13.350Z,98841.97
2017-12-24T10:35:18.152Z,98840.66
2017-12-24T10:36:23.302Z,98847.23
2017-12-24T10:37:28.093Z,98843.46
2017-12-24T10:38:32.828Z,98845.70
2017-12-24T10:39:37.923Z,98824.04
2017-12-24T10:40:42.673Z,98835.70
2017-12-24T10:41:47.424Z,98832.58
2017-12-24T10:42:52.093Z,98833.03
2017-12-24T10:43:57.661Z,98822.16
2017-12-24T10:45:02.470Z,98816.84
2017-12-24T10:46:07.612Z,98831.71
2017-12-24T10:47:12.669Z,98828.03
2017-12-24T10:48:17.505Z,98819.27
2017-12-24T10:49:22.096Z,98821.59
2017-12-24T10:50:27.276Z,98820.11
2017-12-24T10:51:31.902Z,98826.41
2017-12-24T10:52:36.993Z,98819.03
2017-12-24T10:53:41.742Z,98836.16
2017-12-24T10:54:46.500Z,98839.41
2017-12-24T10:55:51.487Z,98825.30
2017-12-24T10:56:56.151Z,98823.08
2017-12-24T10:58:00.806Z,98833.16
2017-12-24T10:59:05.577Z,98824.77
2017-12-24T11:00:10.421Z,98827.80
2017-12-24T11:01:15.753Z,98816.00
2017-12-24T11:02:20.386Z,98827.98
2017-12-24T11:03:25.747Z,98821.16
2017-12-24T11:04:30.446Z,98816.70
2017-12-24T11:05:35.507Z,98824.41
2017-12-24T11:06:40.313Z,98814.59
2017-12-24T11:07:46.038Z,98812.06
2017-12-24T11:08:51.193Z,98812.06
2017-12-24T11:09:55.966Z,98792.33
2017-12-24T11:11:00.821Z,98812.43
2017-12-24T11:12:06.041Z,98791.58
2017-12-24T11:13:11.504Z,98814.16
2017-12-24T11:14:16.263Z,98805.22
2017-12-24T11:15:22.670Z,98805.47
2017-12-24T11:16:27.555Z,98807.16
2017-12-24T11:17:32.382Z,98803.77
2017-12-24T11:18:37.246Z,98808.81
2017-12-24T11:19:42.130Z,98817.66
2017-12-24T11:20:46.858Z,98814.80
2017-12-24T11:21:51.604Z,98815.00
2017-12-24T11:22:56.383Z,98809.22
2017-12-24T11:24:01.432Z,98812.45
2017-12-24T11:25:06.189Z,98804.67
2017-12-24T11:26:10.972Z,98806.45
2017-12-24T11:27:15.756Z,98810.63
2017-12-24T11:28:20.540Z,98813.14
2017-12-24T11:29:25.340Z,98809.92
2017-12-24T11:30:30.380Z,98810.72
2017-12-24T11:31:35.144Z,98807.72
2017-12-24T11:32:39.868Z,98804.59
2017-12-24T11:33:44.662Z,98803.73
2017-12-24T11:34:49.538Z,98805.61
2017-12-24T11:35:54.612Z,98793.14
2017-12-24T11:36:59.768Z,98791.34
2017-12-24T11:38:04.574Z,98797.84
2017-12-24T11:39:09.231Z,98796.47
2017-12-24T11:40:13.962Z,98796.19
2017-12-24T11:41:18.775Z,98784.91
2017-12-24T11:42:23.532Z,98785.91
2017-12-24T11:43:29.507Z,98777.91
2017-12-24T11:44:34.258Z,98777.67
2017-12-24T11:45:39.041Z,98778.09
2017-12-24T11:46:44.048Z,98771.58
2017-12-24T11:47:48.795Z,98772.47
2017-12-24T11:48:53.553Z,98766.10
2017-12-24T11:49:58.549Z,98765.89
2017-12-24T11:51:03.329Z,98768.99
2017-12-24T11:52:08.163Z,98771.88
2017-12-24T11:53:12.892Z,98773.73
2017-12-24T11:54:18.154Z,98763.80
2017-12-24T11:55:22.960Z,98761.76
2017-12-24T11:56:28.004Z,98763.23
2017-12-24T11:57:32.794Z,98754.77
2017-12-24T11:58:37.637Z,98758.59
2017-12-24T11:59:42.975Z,98759.39
2017-12-24T12:00:47.740Z,98753.50
2017-12-24T12:01:52.526Z,98741.03
2017-12-24T12:02:57.981Z,98749.00
2017-12-24T12:04:02.783Z,98750.92
2017-12-24T12:05:07.566Z,98752.84
2017-12-24T12:06:12.316Z,98751.05
2017-12-24T12:07:17.110Z,98746.53
2017-12-24T12:08:21.922Z,98747.66
2017-12-24T12:09:27.007Z,98727.89
2017-12-24T12:10:31.704Z,98736.96
2017-12-24T12:11:36.486Z,98742.06
2017-12-24T12:12:41.262Z,98736.09
2017-12-24T12:13:46.266Z,98733.64
2017-12-24T12:14:51.109Z,98739.92
2017-12-24T12:15:56.725Z,98737.78
2017-12-24T12:17:01.720Z,98728.06
2017-12-24T12:18:06.483Z,98729.55
2017-12-24T12:19:11.346Z,98731.27
2017-12-24T12:20:16.328Z,98726.69
2017-12-24T12:21:21.920Z,98738.17
2017-12-24T12:22:27.229Z,98730.45
2017-12-24T12:23:31.937Z,98736.66
2017-12-24T12:24:36.666Z,98730.40
2017-12-24T12:25:41.448Z,98723.93
2017-12-24T12:26:46.050Z,98732.12
2017-12-24T12:27:50.646Z,98734.39
2017-12-24T12:28:55.555Z,98724.55
2017-12-24T12:30:00.213Z,98711.92
2017-12-24T12:31:04.811Z,98708.19
2017-12-24T12:32:09.450Z,98717.00
2017-12-24T12:33:14.239Z,98716.89
2017-12-24T12:34:19.081Z,98709.59
2017-12-24T12:35:24.186Z,98711.25
2017-12-24T12:36:28.965Z,98720.66
2017-12-24T12:37:33.765Z,98716.27
2017-12-24T12:38:38.533Z,98708.92
2017-12-24T12:39:43.243Z,98714.80
2017-12-24T12:40:47.974Z,98711.41
2017-12-24T12:41:53.057Z,98713.45
2017-12-24T12:42:57.894Z,98682.19